DLH15E EDDM-EDDF
Flight info
| Callsign | DLH15E |
|---|---|
| Flight time | 0h 38m |
| Altitude | 22000 |
| Route | GIVMI6Q GIVMI Y101 ERNAS T161 DEBHI DEBHI1B |
| Aircraft | A320/M-SDE3FGHIRWY/LB1 |
Departure
| Time | 2026-04-18 08:56 |
|---|---|
| Airport | Munich Airport (EDDM) |
Arrival
| Time | 2026-04-18 09:35 |
|---|---|
| Airport | Frankfurt Main Airport (EDDF) |
| Time | Latitude | Longitude | Altitude | Speed | Heading |
|---|---|---|---|---|---|
| 2026-04-18 08:30 | 48.35202 | 11.79356 | 1473 ft | 0 kts | 263° |
| 2026-04-18 08:43 | 48.35204 | 11.79382 | 1470 ft | 4 kts | 263° |
| 2026-04-18 08:43 | 48.35208 | 11.79422 | 1476 ft | 4 kts | 263° |
| 2026-04-18 08:43 | 48.35209 | 11.79461 | 1475 ft | 4 kts | 281° |
| 2026-04-18 08:44 | 48.35199 | 11.79494 | 1473 ft | 4 kts | 331° |
| 2026-04-18 08:44 | 48.35180 | 11.79501 | 1473 ft | 4 kts | 353° |
| 2026-04-18 08:44 | 48.35171 | 11.79503 | 1475 ft | 0 kts | 353° |
| 2026-04-18 08:49 | 48.35177 | 11.79502 | 1473 ft | 4 kts | 353° |
| 2026-04-18 08:49 | 48.35226 | 11.79493 | 1475 ft | 11 kts | 353° |
| 2026-04-18 08:49 | 48.35314 | 11.79478 | 1475 ft | 14 kts | 353° |
| 2026-04-18 08:50 | 48.35423 | 11.79459 | 1478 ft | 17 kts | 353° |
| 2026-04-18 08:50 | 48.35544 | 11.79438 | 1481 ft | 18 kts | 353° |
| 2026-04-18 08:50 | 48.35674 | 11.79416 | 1474 ft | 20 kts | 353° |
| 2026-04-18 08:50 | 48.35809 | 11.79393 | 1482 ft | 17 kts | 353° |
| 2026-04-18 08:51 | 48.35886 | 11.79379 | 1473 ft | 5 kts | 353° |
| 2026-04-18 08:51 | 48.35915 | 11.79361 | 1478 ft | 5 kts | 330° |
| 2026-04-18 08:51 | 48.35976 | 11.79336 | 1475 ft | 12 kts | 352° |
| 2026-04-18 08:51 | 48.36056 | 11.79321 | 1478 ft | 11 kts | 353° |
| 2026-04-18 08:52 | 48.36090 | 11.79256 | 1477 ft | 9 kts | 259° |
| 2026-04-18 08:52 | 48.36080 | 11.79152 | 1485 ft | 14 kts | 263° |
| 2026-04-18 08:52 | 48.36066 | 11.78963 | 1476 ft | 22 kts | 263° |
| 2026-04-18 08:52 | 48.36046 | 11.78700 | 1485 ft | 27 kts | 263° |
| 2026-04-18 08:53 | 48.36023 | 11.78411 | 1476 ft | 29 kts | 263° |
| 2026-04-18 08:53 | 48.36000 | 11.78110 | 1481 ft | 29 kts | 264° |
| 2026-04-18 08:53 | 48.35977 | 11.77803 | 1475 ft | 30 kts | 263° |
| 2026-04-18 08:53 | 48.35953 | 11.77492 | 1485 ft | 30 kts | 263° |
| 2026-04-18 08:54 | 48.35930 | 11.77199 | 1485 ft | 19 kts | 263° |
| 2026-04-18 08:54 | 48.35938 | 11.77067 | 1478 ft | 12 kts | 304° |
| 2026-04-18 08:54 | 48.35990 | 11.76983 | 1472 ft | 10 kts | 332° |
| 2026-04-18 08:54 | 48.36051 | 11.76970 | 1475 ft | 8 kts | 353° |
| 2026-04-18 08:55 | 48.36139 | 11.76954 | 1485 ft | 20 kts | 353° |
| 2026-04-18 08:55 | 48.36272 | 11.76936 | 1478 ft | 9 kts | 21° |
| 2026-04-18 08:55 | 48.36296 | 11.77015 | 1479 ft | 8 kts | 83° |
| 2026-04-18 08:55 | 48.36307 | 11.77166 | 1482 ft | 29 kts | 84° |
| 2026-04-18 08:56 | 48.36361 | 11.77854 | 1485 ft | 99 kts | 83° |
| 2026-04-18 08:56 | 48.36463 | 11.79172 | 1482 ft | 152 kts | 83° |
| 2026-04-18 08:56 | 48.36607 | 11.80942 | 1678 ft | 179 kts | 83° |
| 2026-04-18 08:56 | 48.36745 | 11.82806 | 2399 ft | 179 kts | 83° |
| 2026-04-18 08:57 | 48.37283 | 11.86753 | 3288 ft | 213 kts | 61° |
| 2026-04-18 08:57 | 48.38427 | 11.88211 | 3615 ft | 235 kts | 19° |
| 2026-04-18 08:57 | 48.40093 | 11.88369 | 4232 ft | 246 kts | 353° |
| 2026-04-18 08:58 | 48.41713 | 11.87332 | 4787 ft | 266 kts | 318° |
| 2026-04-18 08:58 | 48.42863 | 11.85112 | 5595 ft | 273 kts | 301° |
| 2026-04-18 08:58 | 48.43878 | 11.82680 | 6493 ft | 276 kts | 306° |
| 2026-04-18 08:58 | 48.45074 | 11.80396 | 7355 ft | 279 kts | 310° |
| 2026-04-18 08:59 | 48.46360 | 11.78185 | 8206 ft | 282 kts | 312° |
| 2026-04-18 08:59 | 48.47685 | 11.75979 | 9093 ft | 284 kts | 312° |
| 2026-04-18 08:59 | 48.49014 | 11.73756 | 9971 ft | 286 kts | 311° |
| 2026-04-18 08:59 | 48.50341 | 11.71500 | 10737 ft | 289 kts | 311° |
| 2026-04-18 09:00 | 48.51668 | 11.69209 | 11543 ft | 291 kts | 310° |
| 2026-04-18 09:00 | 48.52991 | 11.66889 | 12328 ft | 293 kts | 310° |
| 2026-04-18 09:00 | 48.54319 | 11.64541 | 13134 ft | 295 kts | 310° |
| 2026-04-18 09:00 | 48.55638 | 11.62208 | 13928 ft | 297 kts | 310° |
| 2026-04-18 09:01 | 48.56988 | 11.59822 | 14634 ft | 299 kts | 310° |
| 2026-04-18 09:01 | 48.58372 | 11.57370 | 14966 ft | 317 kts | 310° |
| 2026-04-18 09:01 | 48.59851 | 11.54747 | 15109 ft | 337 kts | 310° |
| 2026-04-18 09:01 | 48.61400 | 11.52003 | 15520 ft | 347 kts | 310° |
| 2026-04-18 09:02 | 48.62981 | 11.49204 | 16144 ft | 351 kts | 310° |
| 2026-04-18 09:02 | 48.64570 | 11.46378 | 16796 ft | 354 kts | 310° |
| 2026-04-18 09:02 | 48.66148 | 11.43568 | 17424 ft | 356 kts | 310° |
| 2026-04-18 09:02 | 48.67757 | 11.40698 | 18068 ft | 359 kts | 310° |
| 2026-04-18 09:03 | 48.69391 | 11.37817 | 18682 ft | 362 kts | 313° |
| 2026-04-18 09:03 | 48.71293 | 11.35286 | 19179 ft | 366 kts | 323° |
| 2026-04-18 09:03 | 48.73419 | 11.33133 | 19704 ft | 369 kts | 325° |
| 2026-04-18 09:03 | 48.75566 | 11.30973 | 20234 ft | 371 kts | 325° |
| 2026-04-18 09:04 | 48.77729 | 11.28789 | 20747 ft | 374 kts | 324° |
| 2026-04-18 09:04 | 48.79902 | 11.26585 | 21246 ft | 377 kts | 324° |
| 2026-04-18 09:04 | 48.82087 | 11.24367 | 21761 ft | 379 kts | 324° |
| 2026-04-18 09:04 | 48.84248 | 11.22128 | 22134 ft | 381 kts | 321° |
| 2026-04-18 09:05 | 48.86256 | 11.19492 | 22208 ft | 380 kts | 316° |
| 2026-04-18 09:05 | 48.88208 | 11.16774 | 22217 ft | 380 kts | 316° |
| 2026-04-18 09:05 | 48.90158 | 11.14050 | 22212 ft | 380 kts | 316° |
| 2026-04-18 09:05 | 48.92101 | 11.11329 | 22211 ft | 380 kts | 316° |
| 2026-04-18 09:06 | 48.94044 | 11.08609 | 22216 ft | 380 kts | 316° |
| 2026-04-18 09:06 | 48.95994 | 11.05887 | 22214 ft | 380 kts | 316° |
| 2026-04-18 09:06 | 48.97919 | 11.03202 | 22214 ft | 380 kts | 316° |
| 2026-04-18 09:06 | 48.99890 | 11.00446 | 22215 ft | 380 kts | 316° |
| 2026-04-18 09:07 | 49.01805 | 10.97759 | 22205 ft | 380 kts | 316° |
| 2026-04-18 09:07 | 49.03750 | 10.95027 | 22215 ft | 380 kts | 316° |
| 2026-04-18 09:07 | 49.05693 | 10.92293 | 22215 ft | 380 kts | 316° |
| 2026-04-18 09:07 | 49.07635 | 10.89559 | 22215 ft | 380 kts | 316° |
| 2026-04-18 09:08 | 49.09576 | 10.86824 | 22214 ft | 380 kts | 316° |
| 2026-04-18 09:08 | 49.11514 | 10.84090 | 22209 ft | 380 kts | 316° |
| 2026-04-18 09:08 | 49.13450 | 10.81346 | 22226 ft | 380 kts | 316° |
| 2026-04-18 09:08 | 49.15383 | 10.78599 | 22226 ft | 380 kts | 316° |
| 2026-04-18 09:09 | 49.17295 | 10.75882 | 22225 ft | 379 kts | 316° |
| 2026-04-18 09:09 | 49.19235 | 10.73131 | 22225 ft | 380 kts | 316° |
| 2026-04-18 09:09 | 49.21145 | 10.70343 | 22219 ft | 379 kts | 314° |
| 2026-04-18 09:09 | 49.23002 | 10.67480 | 22201 ft | 379 kts | 313° |
| 2026-04-18 09:10 | 49.24830 | 10.64565 | 22202 ft | 379 kts | 312° |
| 2026-04-18 09:10 | 49.26642 | 10.61635 | 22206 ft | 379 kts | 312° |
| 2026-04-18 09:10 | 49.28458 | 10.58710 | 22201 ft | 378 kts | 312° |
| 2026-04-18 09:10 | 49.30280 | 10.55796 | 22202 ft | 379 kts | 313° |
| 2026-04-18 09:11 | 49.32109 | 10.52886 | 22201 ft | 379 kts | 313° |
| 2026-04-18 09:11 | 49.33943 | 10.49981 | 22201 ft | 379 kts | 313° |
| 2026-04-18 09:11 | 49.35767 | 10.47064 | 22202 ft | 378 kts | 310° |
| 2026-04-18 09:11 | 49.37330 | 10.43894 | 22203 ft | 377 kts | 304° |
| 2026-04-18 09:12 | 49.38836 | 10.40592 | 22203 ft | 377 kts | 304° |
| 2026-04-18 09:12 | 49.40342 | 10.37292 | 22201 ft | 378 kts | 304° |
| 2026-04-18 09:12 | 49.41854 | 10.33981 | 22197 ft | 378 kts | 304° |
| 2026-04-18 09:12 | 49.43364 | 10.30671 | 22190 ft | 378 kts | 304° |
| 2026-04-18 09:13 | 49.44869 | 10.27365 | 22193 ft | 378 kts | 304° |
| 2026-04-18 09:13 | 49.46357 | 10.24089 | 22193 ft | 377 kts | 304° |
| 2026-04-18 09:13 | 49.47877 | 10.20737 | 22191 ft | 378 kts | 304° |
| 2026-04-18 09:13 | 49.49358 | 10.17450 | 22191 ft | 378 kts | 303° |
| 2026-04-18 09:14 | 49.50860 | 10.14118 | 22192 ft | 378 kts | 304° |
| 2026-04-18 09:14 | 49.52361 | 10.10811 | 22191 ft | 378 kts | 304° |
| 2026-04-18 09:14 | 49.53870 | 10.07490 | 22192 ft | 378 kts | 304° |
| 2026-04-18 09:14 | 49.55378 | 10.04161 | 22188 ft | 378 kts | 304° |
| 2026-04-18 09:15 | 49.56881 | 10.00832 | 22188 ft | 378 kts | 304° |
| 2026-04-18 09:15 | 49.58382 | 9.97498 | 22188 ft | 378 kts | 304° |
| 2026-04-18 09:15 | 49.59847 | 9.94239 | 22161 ft | 368 kts | 303° |
| 2026-04-18 09:15 | 49.61277 | 9.91057 | 22021 ft | 355 kts | 303° |
| 2026-04-18 09:16 | 49.62667 | 9.87963 | 21711 ft | 348 kts | 303° |
| 2026-04-18 09:16 | 49.64035 | 9.84910 | 21284 ft | 344 kts | 303° |
| 2026-04-18 09:16 | 49.65388 | 9.81881 | 20859 ft | 341 kts | 303° |
| 2026-04-18 09:16 | 49.66734 | 9.78869 | 20435 ft | 339 kts | 303° |
| 2026-04-18 09:17 | 49.67618 | 9.76886 | 20155 ft | 337 kts | 303° |
| 2026-04-18 09:17 | 49.68945 | 9.73912 | 19739 ft | 335 kts | 303° |
| 2026-04-18 09:17 | 49.70261 | 9.70955 | 19340 ft | 333 kts | 303° |
| 2026-04-18 09:17 | 49.71569 | 9.68011 | 18938 ft | 331 kts | 303° |
| 2026-04-18 09:18 | 49.73016 | 9.65274 | 18673 ft | 324 kts | 317° |
| 2026-04-18 09:18 | 49.74852 | 9.63449 | 18548 ft | 308 kts | 335° |
| 2026-04-18 09:18 | 49.76867 | 9.62547 | 18291 ft | 296 kts | 343° |
| 2026-04-18 09:18 | 49.78851 | 9.61834 | 17804 ft | 290 kts | 343° |
| 2026-04-18 09:19 | 49.80789 | 9.61144 | 17261 ft | 287 kts | 343° |
| 2026-04-18 09:19 | 49.82732 | 9.60451 | 16729 ft | 286 kts | 343° |
| 2026-04-18 09:19 | 49.84663 | 9.59760 | 16203 ft | 283 kts | 344° |
| 2026-04-18 09:19 | 49.86577 | 9.59073 | 15681 ft | 282 kts | 344° |
| 2026-04-18 09:20 | 49.88483 | 9.58392 | 15175 ft | 280 kts | 344° |
| 2026-04-18 09:20 | 49.90380 | 9.57716 | 14690 ft | 278 kts | 344° |
| 2026-04-18 09:20 | 49.92246 | 9.56975 | 14213 ft | 275 kts | 341° |
| 2026-04-18 09:20 | 49.94081 | 9.56151 | 13731 ft | 273 kts | 340° |
| 2026-04-18 09:21 | 49.95887 | 9.55303 | 13175 ft | 271 kts | 340° |
| 2026-04-18 09:21 | 49.97670 | 9.54464 | 12628 ft | 270 kts | 340° |
| 2026-04-18 09:21 | 49.99470 | 9.53622 | 12080 ft | 269 kts | 341° |
| 2026-04-18 09:21 | 50.01281 | 9.52778 | 11254 ft | 278 kts | 341° |
| 2026-04-18 09:22 | 50.03195 | 9.51892 | 10429 ft | 296 kts | 341° |
| 2026-04-18 09:22 | 50.05198 | 9.50972 | 9876 ft | 300 kts | 342° |
| 2026-04-18 09:22 | 50.07184 | 9.50064 | 9283 ft | 294 kts | 342° |
| 2026-04-18 09:22 | 50.09128 | 9.49174 | 8713 ft | 288 kts | 342° |
| 2026-04-18 09:23 | 50.11039 | 9.48298 | 8145 ft | 283 kts | 342° |
| 2026-04-18 09:23 | 50.12894 | 9.47446 | 7593 ft | 279 kts | 342° |
| 2026-04-18 09:23 | 50.14765 | 9.46585 | 7038 ft | 275 kts | 342° |
| 2026-04-18 09:23 | 50.16556 | 9.45705 | 6501 ft | 271 kts | 339° |
| 2026-04-18 09:24 | 50.18327 | 9.44731 | 5936 ft | 268 kts | 338° |
| 2026-04-18 09:24 | 50.20062 | 9.43734 | 5376 ft | 263 kts | 338° |
| 2026-04-18 09:24 | 50.21639 | 9.42419 | 5039 ft | 249 kts | 319° |
| 2026-04-18 09:24 | 50.22796 | 9.40447 | 4987 ft | 246 kts | 300° |
| 2026-04-18 09:25 | 50.23479 | 9.38110 | 4990 ft | 230 kts | 282° |
| 2026-04-18 09:25 | 50.23656 | 9.35656 | 5000 ft | 224 kts | 265° |
| 2026-04-18 09:25 | 50.23367 | 9.33352 | 4993 ft | 211 kts | 248° |
| 2026-04-18 09:25 | 50.22875 | 9.31250 | 4992 ft | 202 kts | 249° |
| 2026-04-18 09:26 | 50.22382 | 9.29130 | 5001 ft | 218 kts | 249° |
| 2026-04-18 09:26 | 50.21871 | 9.26916 | 4996 ft | 220 kts | 249° |
| 2026-04-18 09:26 | 50.21349 | 9.24669 | 4990 ft | 220 kts | 249° |
| 2026-04-18 09:26 | 50.20833 | 9.22439 | 4994 ft | 214 kts | 248° |
| 2026-04-18 09:27 | 50.20335 | 9.20279 | 4996 ft | 210 kts | 249° |
| 2026-04-18 09:27 | 50.19843 | 9.18146 | 4994 ft | 208 kts | 249° |
| 2026-04-18 09:27 | 50.19352 | 9.16026 | 4998 ft | 208 kts | 249° |
| 2026-04-18 09:27 | 50.18861 | 9.13914 | 4997 ft | 207 kts | 249° |
| 2026-04-18 09:28 | 50.18371 | 9.11807 | 4999 ft | 207 kts | 249° |
| 2026-04-18 09:28 | 50.17881 | 9.09696 | 4996 ft | 207 kts | 249° |
| 2026-04-18 09:28 | 50.17389 | 9.07583 | 4996 ft | 207 kts | 249° |
| 2026-04-18 09:28 | 50.16896 | 9.05480 | 4996 ft | 206 kts | 249° |
| 2026-04-18 09:29 | 50.16401 | 9.03373 | 4998 ft | 207 kts | 249° |
| 2026-04-18 09:29 | 50.15907 | 9.01264 | 5000 ft | 207 kts | 249° |
| 2026-04-18 09:29 | 50.15406 | 8.99132 | 5008 ft | 215 kts | 249° |
| 2026-04-18 09:29 | 50.14890 | 8.96929 | 5004 ft | 217 kts | 249° |
| 2026-04-18 09:30 | 50.14370 | 8.94715 | 5003 ft | 217 kts | 249° |
| 2026-04-18 09:30 | 50.13848 | 8.92503 | 5004 ft | 217 kts | 249° |
| 2026-04-18 09:30 | 50.13322 | 8.90287 | 5005 ft | 217 kts | 249° |
| 2026-04-18 09:30 | 50.12801 | 8.88075 | 4915 ft | 218 kts | 249° |
| 2026-04-18 09:31 | 50.12280 | 8.85858 | 4674 ft | 218 kts | 249° |
| 2026-04-18 09:31 | 50.11755 | 8.83629 | 4373 ft | 220 kts | 250° |
| 2026-04-18 09:31 | 50.11227 | 8.81386 | 4097 ft | 221 kts | 250° |
| 2026-04-18 09:31 | 50.10694 | 8.79129 | 3801 ft | 223 kts | 250° |
| 2026-04-18 09:32 | 50.10164 | 8.76880 | 3504 ft | 224 kts | 250° |
| 2026-04-18 09:32 | 50.09625 | 8.74600 | 3207 ft | 224 kts | 251° |
| 2026-04-18 09:32 | 50.09083 | 8.72308 | 2894 ft | 225 kts | 250° |
| 2026-04-18 09:32 | 50.08545 | 8.70041 | 2595 ft | 218 kts | 251° |
| 2026-04-18 09:33 | 50.08031 | 8.67877 | 2324 ft | 210 kts | 250° |
| 2026-04-18 09:33 | 50.07532 | 8.65767 | 2063 ft | 206 kts | 250° |
| 2026-04-18 09:33 | 50.07034 | 8.63672 | 1768 ft | 206 kts | 251° |
| 2026-04-18 09:33 | 50.06547 | 8.61625 | 1479 ft | 195 kts | 251° |
| 2026-04-18 09:34 | 50.06094 | 8.59725 | 1255 ft | 180 kts | 251° |
| 2026-04-18 09:34 | 50.05680 | 8.57986 | 1022 ft | 161 kts | 251° |
| 2026-04-18 09:34 | 50.05307 | 8.56421 | 802 ft | 149 kts | 251° |
| 2026-04-18 09:34 | 50.04955 | 8.54962 | 621 ft | 144 kts | 252° |
| 2026-04-18 09:35 | 50.04611 | 8.53505 | 429 ft | 143 kts | 252° |
| 2026-04-18 09:35 | 50.04303 | 8.52154 | 337 ft | 103 kts | 249° |
| 2026-04-18 09:35 | 50.04133 | 8.51588 | 332 ft | 31 kts | 231° |
| 2026-04-18 09:35 | 50.04033 | 8.51442 | 331 ft | 17 kts | 220° |
| 2026-04-18 09:36 | 50.03975 | 8.51370 | 331 ft | 4 kts | 210° |
| 2026-04-18 09:36 | 50.03964 | 8.51362 | 332 ft | 3 kts | 202° |
| 2026-04-18 09:36 | 50.03925 | 8.51371 | 332 ft | 11 kts | 150° |
| 2026-04-18 09:36 | 50.03926 | 8.51534 | 333 ft | 22 kts | 69° |
| 2026-04-18 09:37 | 50.03987 | 8.51782 | 333 ft | 25 kts | 70° |
| 2026-04-18 09:37 | 50.04049 | 8.52040 | 338 ft | 25 kts | 70° |
| 2026-04-18 09:37 | 50.04110 | 8.52295 | 346 ft | 25 kts | 69° |
| 2026-04-18 09:37 | 50.04171 | 8.52544 | 352 ft | 24 kts | 69° |
| 2026-04-18 09:38 | 50.04229 | 8.52791 | 355 ft | 24 kts | 70° |
| 2026-04-18 09:38 | 50.04287 | 8.53033 | 359 ft | 24 kts | 69° |
| 2026-04-18 09:38 | 50.04342 | 8.53265 | 367 ft | 21 kts | 70° |
| 2026-04-18 09:38 | 50.04387 | 8.53457 | 374 ft | 17 kts | 73° |
| 2026-04-18 09:39 | 50.04403 | 8.53636 | 375 ft | 17 kts | 84° |
| 2026-04-18 09:39 | 50.04416 | 8.53832 | 375 ft | 19 kts | 84° |
| 2026-04-18 09:39 | 50.04431 | 8.54048 | 375 ft | 21 kts | 84° |
| 2026-04-18 09:39 | 50.04446 | 8.54283 | 375 ft | 23 kts | 84° |
| 2026-04-18 09:40 | 50.04437 | 8.54551 | 368 ft | 28 kts | 109° |
| 2026-04-18 09:40 | 50.04308 | 8.54773 | 358 ft | 18 kts | 155° |
| 2026-04-18 09:40 | 50.04259 | 8.54804 | 358 ft | 8 kts | 158° |
| 2026-04-18 09:40 | 50.04199 | 8.54841 | 356 ft | 9 kts | 161° |
| 2026-04-18 09:41 | 50.04136 | 8.54872 | 352 ft | 10 kts | 162° |
| 2026-04-18 09:41 | 50.04076 | 8.54903 | 352 ft | 8 kts | 159° |
| 2026-04-18 09:41 | 50.04032 | 8.54938 | 357 ft | 8 kts | 141° |
| 2026-04-18 09:41 | 50.04025 | 8.55048 | 361 ft | 15 kts | 71° |
| 2026-04-18 09:42 | 50.04069 | 8.55228 | 359 ft | 19 kts | 69° |
| 2026-04-18 09:42 | 50.04119 | 8.55434 | 354 ft | 22 kts | 69° |
| 2026-04-18 09:42 | 50.04152 | 8.55577 | 353 ft | 0 kts | 70° |
| 2026-04-18 09:42 | 50.04158 | 8.55602 | 359 ft | 6 kts | 70° |
| 2026-04-18 09:43 | 50.04180 | 8.55694 | 354 ft | 12 kts | 69° |
| 2026-04-18 09:43 | 50.04218 | 8.55848 | 356 ft | 17 kts | 69° |
| 2026-04-18 09:43 | 50.04259 | 8.56023 | 359 ft | 18 kts | 69° |
| 2026-04-18 09:43 | 50.04304 | 8.56210 | 360 ft | 19 kts | 69° |
| 2026-04-18 09:44 | 50.04352 | 8.56411 | 356 ft | 20 kts | 70° |
| 2026-04-18 09:44 | 50.04403 | 8.56624 | 365 ft | 21 kts | 69° |
| 2026-04-18 09:44 | 50.04456 | 8.56843 | 359 ft | 22 kts | 70° |
| 2026-04-18 09:44 | 50.04512 | 8.57080 | 360 ft | 25 kts | 70° |
| 2026-04-18 09:45 | 50.04567 | 8.57306 | 357 ft | 11 kts | 69° |
| 2026-04-18 09:45 | 50.04583 | 8.57371 | 359 ft | 6 kts | 69° |
| 2026-04-18 09:45 | 50.04597 | 8.57433 | 358 ft | 10 kts | 70° |
| 2026-04-18 09:45 | 50.04635 | 8.57594 | 360 ft | 21 kts | 69° |
| 2026-04-18 09:46 | 50.04686 | 8.57809 | 358 ft | 16 kts | 70° |
| 2026-04-18 09:46 | 50.04740 | 8.57921 | 358 ft | 12 kts | 20° |
| 2026-04-18 09:46 | 50.04811 | 8.57901 | 358 ft | 9 kts | 330° |
| 2026-04-18 09:46 | 50.04840 | 8.57865 | 360 ft | 3 kts | 317° |
| 2026-04-18 09:47 | 50.04853 | 8.57851 | 358 ft | 2 kts | 328° |
| 2026-04-18 09:47 | 50.04861 | 8.57846 | 361 ft | 2 kts | 342° |
| 2026-04-18 09:47 | 50.04885 | 8.57855 | 362 ft | 3 kts | 23° |
| 2026-04-18 09:47 | 50.04903 | 8.57866 | 361 ft | 3 kts | 21° |
| 2026-04-18 09:48 | 50.04918 | 8.57875 | 363 ft | 2 kts | 21° |
| 2026-04-18 09:48 | 50.04921 | 8.57877 | 363 ft | 0 kts | 21° |